Haci Arif Kaptan — TCQQ — position and weather

sailwx.info

Track history (hours):
 
Tides and Currents Weather Stations Pressure Air Temp Water Temp Dewpoint Dewpoint Depression Visibility Wind Speed Wind Dir Waves Ship Positions

Haci Arif Kaptan

Last reported at 2015-Apr-16 11:19 UTC. Time now 2015-Apr-18 11:45 UTC.
Position N 46°35' E 031°02'.

Length 130 m; draft 4.2 m.

Type: Cargo ship. MMSI: 271000494.

Date/timePositionNaut miles runAvg speedWind from/ knotsBaromVisibWave heightAir tempDewpointWater temp
2015-Apr-16 11:19N 46°35' E 031°02'0 0.0
2015-Apr-16 10:19N 46°35' E 031°02'0 0.0
2015-Apr-16 09:31N 46°35' E 031°02'0 0.0
2015-Apr-16 08:28N 46°35' E 031°02'0 0.0
2015-Apr-16 05:31N 46°35' E 031°02'0 0.0
2015-Apr-16 04:19N 46°35' E 031°02'0 0.0
2015-Apr-16 03:25N 46°35' E 031°02'  
2015-Apr-13 20:09N 41°08' E 029°04'11 7.0
2015-Apr-13 18:33N 40°58' E 028°59'4 4.2
2015-Apr-13 17:33N 40°54' E 028°57'1 1.3
2015-Apr-13 16:33N 40°55' E 028°56'4 3.9
2015-Apr-13 15:33N 40°59' E 028°56'1 0.5
2015-Apr-13 14:27N 40°59' E 028°56'0 0.1
2015-Apr-13 13:33N 40°59' E 028°56'0 0.0
2015-Apr-13 12:33N 40°59' E 028°56'0 0.0
2015-Apr-13 11:27N 40°59' E 028°56'0 0.0
2015-Apr-13 10:09N 40°59' E 028°56'0 0.0
2015-Apr-13 08:33N 40°59' E 028°56'0 0.0
2015-Apr-13 07:33N 40°59' E 028°56'0 0.0
2015-Apr-13 06:27N 40°59' E 028°56'155 5.2
2015-Apr-12 00:22N 39°50' E 025°53'  
2015-Apr-09 11:19N 37°36' E 026°52'28 6.7
2015-Apr-09 07:11N 37°12' E 026°36'22 5.4
2015-Apr-09 03:06N 36°60' E 026°13'5 8.5
2015-Apr-09 02:33N 37°03' E 026°08'17 8.3
2015-Apr-09 00:31N 37°15' E 025°53'7 7.3
2015-Apr-08 23:33N 37°20' E 025°48'2 2.3
2015-Apr-08 22:33N 37°19' E 025°46'5 5.3
2015-Apr-08 21:33N 37°22' E 025°40'4 4.4
2015-Apr-08 20:33N 37°21' E 025°34'5 5.1
2015-Apr-08 19:33N 37°19' E 025°28'8 8.3
2015-Apr-08 18:33N 37°19' E 025°18'8 8.5
2015-Apr-08 17:33N 37°18' E 025°07'7 7.4
2015-Apr-08 16:34N 37°16' E 024°58'7 6.7
2015-Apr-08 15:34N 37°13' E 024°51'269 7.3
2015-Apr-07 02:32N 39°17' E 019°47'1010.7
2015-Apr-07 01:33N 39°25' E 019°40'1010.4
2015-Apr-07 00:33N 39°34' E 019°32'1010.2
2015-Apr-06 23:33N 39°42' E 019°24'1110.5
2015-Apr-06 22:33N 39°52' E 019°18'1010.0
2015-Apr-06 21:33N 40°01' E 019°13'  
Track history (hours):
 
Tides and Currents Weather Stations Pressure Air Temp Water Temp Dewpoint Dewpoint Depression Visibility Wind Speed Wind Dir Waves Ship Positions

Haci Arif Kaptan

Last reported at 2015-Apr-16 11:19 UTC. Time now 2015-Apr-18 11:45 UTC.
Position N 46°35' E 031°02'.

Length 130 m; draft 4.2 m.

Type: Cargo ship. MMSI: 271000494.

Date/timePositionNaut miles runAvg speedWind from/ knotsBaromVisibWave heightAir tempDewpointWater temp
2015-Apr-16 11:19N 46°35' E 031°02'0 0.0
2015-Apr-16 10:19N 46°35' E 031°02'0 0.0
2015-Apr-16 09:31N 46°35' E 031°02'0 0.0
2015-Apr-16 08:28N 46°35' E 031°02'0 0.0
2015-Apr-16 05:31N 46°35' E 031°02'0 0.0
2015-Apr-16 04:19N 46°35' E 031°02'0 0.0
2015-Apr-16 03:25N 46°35' E 031°02'  
2015-Apr-13 20:09N 41°08' E 029°04'11 7.0
2015-Apr-13 18:33N 40°58' E 028°59'4 4.2
2015-Apr-13 17:33N 40°54' E 028°57'1 1.3
2015-Apr-13 16:33N 40°55' E 028°56'4 3.9
2015-Apr-13 15:33N 40°59' E 028°56'1 0.5
2015-Apr-13 14:27N 40°59' E 028°56'0 0.1
2015-Apr-13 13:33N 40°59' E 028°56'0 0.0
2015-Apr-13 12:33N 40°59' E 028°56'0 0.0
2015-Apr-13 11:27N 40°59' E 028°56'0 0.0
2015-Apr-13 10:09N 40°59' E 028°56'0 0.0
2015-Apr-13 08:33N 40°59' E 028°56'0 0.0
2015-Apr-13 07:33N 40°59' E 028°56'0 0.0
2015-Apr-13 06:27N 40°59' E 028°56'155 5.2
2015-Apr-12 00:22N 39°50' E 025°53'  
2015-Apr-09 11:19N 37°36' E 026°52'28 6.7
2015-Apr-09 07:11N 37°12' E 026°36'22 5.4
2015-Apr-09 03:06N 36°60' E 026°13'5 8.5
2015-Apr-09 02:33N 37°03' E 026°08'17 8.3
2015-Apr-09 00:31N 37°15' E 025°53'7 7.3
2015-Apr-08 23:33N 37°20' E 025°48'2 2.3
2015-Apr-08 22:33N 37°19' E 025°46'5 5.3
2015-Apr-08 21:33N 37°22' E 025°40'4 4.4
2015-Apr-08 20:33N 37°21' E 025°34'5 5.1
2015-Apr-08 19:33N 37°19' E 025°28'8 8.3
2015-Apr-08 18:33N 37°19' E 025°18'8 8.5
2015-Apr-08 17:33N 37°18' E 025°07'7 7.4
2015-Apr-08 16:34N 37°16' E 024°58'7 6.7
2015-Apr-08 15:34N 37°13' E 024°51'269 7.3
2015-Apr-07 02:32N 39°17' E 019°47'1010.7
2015-Apr-07 01:33N 39°25' E 019°40'1010.4
2015-Apr-07 00:33N 39°34' E 019°32'1010.2
2015-Apr-06 23:33N 39°42' E 019°24'1110.5
2015-Apr-06 22:33N 39°52' E 019°18'1010.0
2015-Apr-06 21:33N 40°01' E 019°13'  

Dump ship's entire track history